Time;durP1;ratioP1;P1;durP2;ratioP2;P2;SDS_P1;SDS_P2;PMS_P1;PMS_P2;Temp;Humidity;BMP_temperature;BMP_pressure;BME280_temperature;BME280_humidity;BME280_pressure;Samples;Min_cycle;Max_cycle;Signal;HPM_P1;HPM_P2
2023/12/31 00:00:36;;;;;;;2.30;1.98;;;5.50;99.90;;;;;;5034220;28;20203;-77
2023/12/31 00:03:03;;;;;;;2.90;2.28;;;5.50;99.90;;;;;;5036650;28;20287;-77
2023/12/31 00:05:30;;;;;;;4.43;2.58;;;5.50;99.90;;;;;;5036282;28;20603;-77
2023/12/31 00:07:57;;;;;;;5.43;2.42;;;5.50;99.90;;;;;;5034987;28;20247;-78
2023/12/31 00:10:24;;;;;;;2.83;2.63;;;5.40;99.90;;;;;;5036916;28;20561;-77
2023/12/31 00:12:52;;;;;;;2.15;2.05;;;5.40;99.90;;;;;;5037726;28;20555;-77
2023/12/31 00:15:19;;;;;;;2.55;2.35;;;5.30;99.90;;;;;;5033406;28;20203;-78
2023/12/31 00:17:45;;;;;;;3.05;2.50;;;5.20;99.90;;;;;;5032555;28;20429;-77
2023/12/31 00:20:12;;;;;;;3.42;2.45;;;5.20;99.90;;;;;;5033571;28;20557;-77
2023/12/31 00:22:39;;;;;;;3.88;2.35;;;5.20;99.90;;;;;;5035832;28;20546;-77
2023/12/31 00:25:07;;;;;;;2.45;2.25;;;5.20;99.90;;;;;;5036650;28;20200;-78
2023/12/31 00:27:33;;;;;;;2.90;2.47;;;5.20;99.90;;;;;;5034938;28;20655;-77
2023/12/31 00:30:02;;;;;;;3.35;3.10;;;5.10;99.90;;;;;;5032932;28;20292;-78
2023/12/31 00:32:28;;;;;;;2.40;2.20;;;5.10;99.90;;;;;;5040000;28;20188;-78
2023/12/31 00:34:55;;;;;;;2.78;2.58;;;5.10;99.90;;;;;;5032873;28;20203;-78
2023/12/31 00:37:22;;;;;;;3.80;1.83;;;5.10;99.90;;;;;;5032293;28;20213;-77
2023/12/31 00:39:49;;;;;;;4.43;2.67;;;5.10;99.90;;;;;;5040527;28;20207;-78
2023/12/31 00:42:16;;;;;;;2.28;2.00;;;5.10;99.90;;;;;;5032677;28;20200;-77
2023/12/31 00:44:42;;;;;;;2.78;2.58;;;5.10;99.90;;;;;;5033188;28;20207;-78
2023/12/31 00:47:10;;;;;;;7.90;2.40;;;5.00;99.90;;;;;;5033779;28;20208;-77
2023/12/31 00:49:37;;;;;;;3.72;3.42;;;5.00;99.90;;;;;;5033442;28;20200;-77
2023/12/31 00:52:04;;;;;;;2.85;2.50;;;5.00;99.90;;;;;;5041513;28;20602;-77
2023/12/31 00:54:31;;;;;;;4.32;2.88;;;4.90;99.90;;;;;;5051153;28;20238;-77
2023/12/31 00:56:59;;;;;;;3.22;2.85;;;4.90;99.90;;;;;;5045766;28;20200;-77
2023/12/31 00:59:26;;;;;;;3.65;2.42;;;4.90;99.90;;;;;;5040036;28;20600;-77
2023/12/31 01:01:54;;;;;;;4.25;3.47;;;4.90;99.90;;;;;;5046308;28;20200;-77
2023/12/31 01:04:22;;;;;;;3.90;2.58;;;4.80;99.90;;;;;;5049272;28;20207;-77
2023/12/31 01:06:50;;;;;;;3.85;3.55;;;4.90;99.90;;;;;;5053519;28;20204;-77
2023/12/31 01:09:17;;;;;;;2.20;1.83;;;4.90;99.90;;;;;;5044565;28;20382;-78
2023/12/31 01:11:44;;;;;;;2.40;2.20;;;4.80;99.90;;;;;;5032469;28;20205;-77
2023/12/31 01:14:10;;;;;;;3.40;2.45;;;4.90;99.90;;;;;;5043052;28;20218;-77
2023/12/31 01:16:37;;;;;;;3.50;2.80;;;4.80;99.90;;;;;;5038223;28;20206;-77
2023/12/31 01:19:04;;;;;;;3.90;2.75;;;4.80;99.90;;;;;;5036965;27;20695;-78
2023/12/31 01:21:32;;;;;;;5.03;2.63;;;4.80;99.90;;;;;;5052809;27;20580;-77
2023/12/31 01:23:59;;;;;;;2.67;2.35;;;4.80;99.90;;;;;;5036757;28;20210;-78
2023/12/31 01:26:26;;;;;;;2.97;2.47;;;4.80;99.90;;;;;;5048198;28;20215;-77
2023/12/31 01:28:52;;;;;;;3.67;2.83;;;4.70;99.90;;;;;;5060696;28;20223;-77
2023/12/31 01:31:20;;;;;;;2.58;2.38;;;4.70;99.90;;;;;;5060045;28;20253;-77
2023/12/31 01:33:47;;;;;;;3.00;2.80;;;4.80;99.90;;;;;;5050686;28;20207;-78
2023/12/31 01:36:15;;;;;;;2.92;2.70;;;4.70;99.90;;;;;;5052705;28;20567;-78
2023/12/31 01:38:44;;;;;;;3.95;2.47;;;4.70;99.90;;;;;;5040798;28;20200;-78
2023/12/31 01:41:11;;;;;;;2.97;2.63;;;4.70;99.90;;;;;;5048723;28;20201;-77
2023/12/31 01:43:38;;;;;;;2.28;1.92;;;4.70;99.90;;;;;;5053660;27;20289;-77
2023/12/31 01:46:06;;;;;;;2.53;2.33;;;4.80;99.90;;;;;;5039847;28;20227;-78
2023/12/31 01:48:34;;;;;;;2.75;2.55;;;4.80;99.90;;;;;;5051140;28;20239;-77
2023/12/31 01:51:02;;;;;;;2.58;2.03;;;4.90;99.90;;;;;;5050396;27;20548;-77
2023/12/31 01:53:29;;;;;;;2.55;2.35;;;4.80;99.90;;;;;;5044232;28;20667;-77
2023/12/31 01:55:59;;;;;;;4.03;3.08;;;4.80;99.90;;;;;;5035061;28;20674;-77
2023/12/31 01:58:26;;;;;;;2.92;2.55;;;4.70;99.90;;;;;;5041727;28;20491;-77
2023/12/31 02:00:54;;;;;;;4.30;2.63;;;4.70;99.90;;;;;;5033628;28;20595;-78
2023/12/31 02:03:21;;;;;;;3.78;2.55;;;4.60;99.90;;;;;;5044607;27;20210;-78
2023/12/31 02:05:48;;;;;;;3.30;3.10;;;4.60;99.90;;;;;;5042128;28;20201;-78
2023/12/31 02:08:16;;;;;;;3.33;2.78;;;4.60;99.90;;;;;;5042078;28;20543;-78
2023/12/31 02:10:44;;;;;;;3.15;2.13;;;4.60;99.90;;;;;;5039413;28;20255;-77
2023/12/31 02:13:12;;;;;;;3.65;2.28;;;4.50;99.90;;;;;;5037538;27;20208;-78
2023/12/31 02:15:39;;;;;;;4.20;2.80;;;4.60;99.90;;;;;;5043258;27;20202;-78
2023/12/31 02:18:06;;;;;;;2.00;1.90;;;4.50;99.90;;;;;;5034373;28;21741;-78
2023/12/31 02:20:34;;;;;;;3.05;2.63;;;4.40;99.90;;;;;;5036999;27;20292;-78
2023/12/31 02:23:02;;;;;;;3.85;2.78;;;4.40;99.90;;;;;;5039427;28;20249;-78
2023/12/31 02:25:30;;;;;;;2.05;1.95;;;4.40;99.90;;;;;;5052778;27;20251;-78
2023/12/31 02:27:59;;;;;;;2.80;2.53;;;4.50;99.90;;;;;;5047676;28;20385;-78
2023/12/31 02:30:27;;;;;;;2.53;2.33;;;4.50;99.90;;;;;;5046548;28;20382;-78
2023/12/31 02:32:55;;;;;;;3.28;2.97;;;4.50;99.90;;;;;;5055877;28;20214;-78
2023/12/31 02:35:23;;;;;;;3.63;2.78;;;4.50;99.90;;;;;;5047690;28;20207;-78
2023/12/31 02:37:51;;;;;;;2.95;2.15;;;4.50;99.90;;;;;;5039479;28;20727;-78
2023/12/31 02:40:20;;;;;;;2.80;2.50;;;4.50;99.90;;;;;;5058748;28;20195;-78
2023/12/31 02:42:49;;;;;;;3.05;2.70;;;4.70;99.90;;;;;;5047627;28;20204;-78
2023/12/31 02:45:18;;;;;;;38.03;3.28;;;4.70;99.90;;;;;;5045303;28;20219;-78
2023/12/31 02:47:47;;;;;;;2.05;1.85;;;4.70;99.90;;;;;;5043057;28;20219;-78
2023/12/31 02:50:15;;;;;;;4.47;3.17;;;4.90;99.90;;;;;;5038837;27;20686;-78
2023/12/31 02:52:44;;;;;;;4.28;3.05;;;5.00;99.90;;;;;;5041659;28;20684;-77
2023/12/31 02:55:13;;;;;;;4.88;3.55;;;5.00;99.90;;;;;;5040342;27;20602;-78
2023/12/31 02:57:41;;;;;;;2.88;2.28;;;5.10;99.90;;;;;;5043980;28;20196;-78
2023/12/31 03:00:10;;;;;;;3.17;2.97;;;5.10;99.90;;;;;;5034726;28;20647;-78
2023/12/31 03:02:40;;;;;;;2.75;2.55;;;5.20;99.90;;;;;;5045171;27;20265;-78
2023/12/31 03:05:08;;;;;;;2.53;2.33;;;5.30;99.90;;;;;;5033505;27;20620;-78
2023/12/31 03:07:35;;;;;;;2.25;2.05;;;5.20;99.90;;;;;;5032873;27;20228;-78
2023/12/31 03:10:02;;;;;;;3.22;2.45;;;5.20;99.90;;;;;;5032587;28;20671;-78
2023/12/31 03:12:30;;;;;;;4.00;2.55;;;5.20;99.90;;;;;;5047069;28;20200;-78
2023/12/31 03:14:57;;;;;;;2.20;2.00;;;5.30;99.90;;;;;;5042456;28;20204;-78
2023/12/31 03:17:25;;;;;;;3.13;2.55;;;5.40;99.90;;;;;;5038061;28;20624;-78
2023/12/31 03:19:54;;;;;;;4.15;2.83;;;5.40;99.90;;;;;;5038131;27;20215;-79
2023/12/31 03:22:22;;;;;;;2.58;2.13;;;5.40;99.90;;;;;;5033023;28;20641;-78
2023/12/31 03:24:50;;;;;;;3.22;2.08;;;5.40;99.90;;;;;;5044995;28;20275;-78
2023/12/31 03:27:17;;;;;;;4.10;3.13;;;5.50;99.90;;;;;;5055864;28;20569;-78
2023/12/31 03:29:46;;;;;;;3.72;3.30;;;5.40;99.90;;;;;;5060817;28;20224;-78
2023/12/31 03:32:13;;;;;;;5.47;3.38;;;5.30;99.90;;;;;;5068455;27;20279;-78
2023/12/31 03:34:39;;;;;;;3.55;3.25;;;5.30;99.90;;;;;;5071776;27;20299;-78
2023/12/31 03:37:08;;;;;;;2.58;2.47;;;5.30;99.90;;;;;;5073317;27;20256;-78
2023/12/31 03:39:36;;;;;;;4.43;3.15;;;5.30;99.90;;;;;;5070781;27;20280;-78
2023/12/31 03:42:04;;;;;;;3.13;2.70;;;5.30;99.90;;;;;;5075965;27;20257;-78
2023/12/31 03:44:31;;;;;;;4.93;3.38;;;5.30;99.90;;;;;;5087399;27;20199;-78
2023/12/31 03:46:59;;;;;;;3.67;2.70;;;5.20;99.90;;;;;;5065188;27;20218;-78
2023/12/31 03:49:26;;;;;;;3.53;3.17;;;5.20;99.90;;;;;;5047430;27;20318;-78
2023/12/31 03:51:52;;;;;;;2.70;2.50;;;5.20;99.90;;;;;;5059001;27;20191;-78
2023/12/31 03:54:21;;;;;;;3.25;2.92;;;5.20;99.90;;;;;;5049048;28;20275;-78
2023/12/31 03:56:47;;;;;;;3.08;2.60;;;5.20;99.90;;;;;;5042925;27;20249;-78
2023/12/31 03:59:14;;;;;;;3.08;2.13;;;5.30;99.90;;;;;;5041390;28;20228;-78
2023/12/31 04:01:45;;;;;;;2.85;2.53;;;5.20;99.90;;;;;;5047338;28;20629;-78
2023/12/31 04:04:15;;;;;;;2.92;2.30;;;5.20;99.90;;;;;;5041471;28;20192;-78
2023/12/31 04:06:42;;;;;;;2.75;2.30;;;5.10;99.90;;;;;;5038500;28;20228;-78
2023/12/31 04:09:10;;;;;;;3.15;2.70;;;5.10;99.90;;;;;;5041204;28;20235;-78
2023/12/31 04:11:38;;;;;;;4.13;2.75;;;5.00;99.90;;;;;;5040962;28;20208;-78
2023/12/31 04:14:05;;;;;;;2.58;1.70;;;5.00;99.90;;;;;;5041871;28;20204;-78
2023/12/31 04:16:31;;;;;;;2.78;2.47;;;5.10;99.90;;;;;;5051338;28;20216;-78
2023/12/31 04:18:58;;;;;;;2.60;2.40;;;5.00;99.90;;;;;;5052542;28;20208;-78
2023/12/31 04:21:25;;;;;;;3.15;2.15;;;5.00;99.90;;;;;;5043513;28;20206;-77
2023/12/31 04:23:52;;;;;;;2.10;2.00;;;4.90;99.90;;;;;;5043545;28;20196;-78
2023/12/31 04:26:18;;;;;;;2.90;2.70;;;5.00;99.90;;;;;;5049174;28;20200;-78
2023/12/31 04:28:47;;;;;;;2.50;2.30;;;4.90;99.90;;;;;;5038760;27;20224;-78
2023/12/31 04:31:13;;;;;;;2.42;1.60;;;4.90;99.90;;;;;;5044581;28;20208;-78
2023/12/31 04:33:40;;;;;;;1.45;1.35;;;4.90;99.90;;;;;;5040372;27;20210;-78
2023/12/31 04:36:07;;;;;;;4.65;2.30;;;4.90;99.90;;;;;;5044284;28;21284;-78
2023/12/31 04:38:34;;;;;;;3.08;2.83;;;5.00;99.90;;;;;;5038248;28;20658;-78
2023/12/31 04:41:01;;;;;;;1.60;1.50;;;5.10;99.90;;;;;;5029628;28;20199;-78
2023/12/31 04:43:28;;;;;;;2.55;2.00;;;5.10;99.90;;;;;;5035438;28;20204;-78
2023/12/31 04:45:56;;;;;;;1.85;1.60;;;5.20;99.90;;;;;;5059170;28;20536;-78
2023/12/31 04:48:23;;;;;;;2.45;2.25;;;5.20;99.90;;;;;;5049867;28;20211;-78
2023/12/31 04:50:50;;;;;;;1.90;1.80;;;5.30;99.90;;;;;;5049011;28;20196;-78
2023/12/31 04:53:20;;;;;;;2.17;1.73;;;5.10;99.90;;;;;;5050300;27;20600;-78
2023/12/31 04:55:47;;;;;;;2.78;1.67;;;5.20;99.90;;;;;;5033610;27;20565;-78
2023/12/31 04:58:14;;;;;;;1.40;1.30;;;5.30;99.90;;;;;;5052795;27;20203;-78
2023/12/31 05:00:41;;;;;;;1.83;1.73;;;5.20;99.90;;;;;;5055182;28;20203;-78
2023/12/31 05:03:09;;;;;;;3.22;1.75;;;5.20;99.90;;;;;;5046661;27;20207;-78
2023/12/31 05:05:36;;;;;;;4.25;2.67;;;5.20;99.90;;;;;;5044744;28;20192;-78
2023/12/31 05:08:03;;;;;;;2.22;2.10;;;5.20;99.90;;;;;;5049207;28;20210;-78
2023/12/31 05:10:30;;;;;;;1.92;1.77;;;5.30;99.90;;;;;;5039532;27;20234;-78
2023/12/31 05:12:56;;;;;;;2.45;1.98;;;5.30;99.90;;;;;;5042255;28;21004;-78
2023/12/31 05:15:23;;;;;;;1.33;1.23;;;5.20;99.90;;;;;;5044824;28;20198;-78
2023/12/31 05:17:50;;;;;;;1.80;1.70;;;5.20;99.90;;;;;;5047934;28;20279;-78
2023/12/31 05:20:18;;;;;;;2.00;1.80;;;5.20;99.90;;;;;;5041365;28;20544;-78
2023/12/31 05:22:45;;;;;;;2.08;1.70;;;5.20;99.90;;;;;;5039461;28;20204;-77
2023/12/31 05:25:12;;;;;;;2.20;2.00;;;5.20;99.90;;;;;;5044726;28;20209;-79
2023/12/31 05:27:38;;;;;;;1.58;1.45;;;5.20;99.90;;;;;;5036402;28;20714;-78
2023/12/31 05:30:07;;;;;;;1.55;1.45;;;5.20;99.90;;;;;;5039746;28;20315;-78
2023/12/31 05:32:34;;;;;;;2.95;1.63;;;5.10;99.90;;;;;;5047878;27;20875;-78
2023/12/31 05:35:00;;;;;;;2.63;2.38;;;5.10;99.90;;;;;;5039714;28;20204;-80
2023/12/31 05:37:28;;;;;;;1.88;1.75;;;4.90;99.90;;;;;;5040735;27;20573;-80
2023/12/31 05:39:55;;;;;;;3.30;2.55;;;4.90;99.90;;;;;;5054351;27;20291;-80
2023/12/31 05:42:22;;;;;;;3.47;2.90;;;4.90;99.90;;;;;;5037118;27;20232;-80
2023/12/31 05:44:49;;;;;;;2.13;2.03;;;4.90;99.90;;;;;;5041039;27;20196;-80
2023/12/31 05:47:16;;;;;;;3.10;2.88;;;4.90;99.90;;;;;;5054209;28;20200;-80
2023/12/31 05:49:44;;;;;;;2.28;2.08;;;4.90;99.90;;;;;;5063434;27;20735;-80
2023/12/31 05:52:10;;;;;;;1.90;1.80;;;5.00;99.90;;;;;;5058049;27;20203;-80
2023/12/31 05:54:39;;;;;;;2.50;2.25;;;4.90;99.90;;;;;;5051010;27;20203;-78
2023/12/31 05:57:06;;;;;;;3.08;2.30;;;4.90;99.90;;;;;;5042106;27;20203;-80
2023/12/31 05:59:33;;;;;;;2.08;1.88;;;4.90;99.90;;;;;;5044641;27;20195;-81
2023/12/31 06:02:00;;;;;;;2.08;1.92;;;4.90;99.90;;;;;;5061659;27;20671;-79
2023/12/31 06:04:27;;;;;;;2.30;2.10;;;4.80;99.90;;;;;;5069057;27;20202;-79
2023/12/31 06:06:53;;;;;;;2.08;1.88;;;4.60;99.90;;;;;;5057776;27;20203;-79
2023/12/31 06:09:21;;;;;;;2.22;1.33;;;4.60;99.90;;;;;;5059679;27;20227;-79
2023/12/31 06:11:49;;;;;;;2.70;2.33;;;4.60;99.90;;;;;;5040569;27;20713;-80
2023/12/31 06:14:15;;;;;;;1.63;1.52;;;4.60;99.90;;;;;;5049155;27;20207;-79
2023/12/31 06:16:42;;;;;;;1.75;1.35;;;4.60;99.90;;;;;;5046153;27;20314;-79
2023/12/31 06:19:09;;;;;;;8.00;4.70;;;4.60;99.90;;;;;;5051390;27;20204;-80
2023/12/31 06:21:36;;;;;;;3.05;2.42;;;4.70;99.90;;;;;;5042803;28;20204;-80
2023/12/31 06:24:02;;;;;;;2.30;2.10;;;4.60;99.90;;;;;;5045271;27;20204;-79
2023/12/31 06:26:29;;;;;;;3.28;2.90;;;4.60;99.90;;;;;;5045065;28;20287;-79
2023/12/31 06:28:57;;;;;;;1.75;1.65;;;4.60;99.90;;;;;;5043131;28;20203;-79
2023/12/31 06:31:24;;;;;;;2.35;2.05;;;4.90;99.90;;;;;;5040980;28;20204;-80
2023/12/31 06:33:51;;;;;;;1.55;1.45;;;4.80;99.90;;;;;;5032784;27;20578;-79
2023/12/31 06:36:18;;;;;;;1.88;1.77;;;4.70;99.90;;;;;;5035596;28;20208;-79
2023/12/31 06:38:45;;;;;;;1.98;1.75;;;4.60;99.90;;;;;;5034945;28;20205;-80
2023/12/31 06:41:12;;;;;;;2.30;2.10;;;4.60;99.90;;;;;;5043323;28;20212;-79
2023/12/31 06:43:39;;;;;;;2.92;2.58;;;4.70;99.90;;;;;;5042730;28;20216;-79
2023/12/31 06:46:08;;;;;;;2.20;2.00;;;4.60;99.90;;;;;;5057529;28;20664;-80
2023/12/31 06:48:34;;;;;;;1.90;1.63;;;4.60;99.90;;;;;;5049584;28;20234;-79
2023/12/31 06:51:01;;;;;;;2.72;2.13;;;4.60;99.90;;;;;;5047136;28;20225;-79
2023/12/31 06:53:28;;;;;;;2.08;1.95;;;4.60;99.90;;;;;;5041139;28;20288;-79
2023/12/31 06:55:55;;;;;;;2.20;2.00;;;4.70;99.90;;;;;;5036858;28;20206;-79
2023/12/31 06:58:21;;;;;;;1.75;1.40;;;4.70;99.90;;;;;;5053190;28;20203;-79
2023/12/31 07:00:48;;;;;;;1.90;1.58;;;4.90;99.90;;;;;;5053844;28;20641;-80
2023/12/31 07:03:16;;;;;;;1.25;1.15;;;4.90;99.90;;;;;;5055719;27;20283;-79
2023/12/31 07:05:43;;;;;;;1.60;1.50;;;4.90;99.90;;;;;;5048082;28;20286;-80
2023/12/31 07:08:10;;;;;;;2.63;1.75;;;5.00;99.90;;;;;;5045406;28;20294;-79
2023/12/31 07:10:37;;;;;;;2.15;1.65;;;5.00;99.90;;;;;;5050549;27;20334;-79
2023/12/31 07:13:04;;;;;;;3.72;2.15;;;5.10;99.90;;;;;;5049724;27;20204;-79
2023/12/31 07:15:31;;;;;;;1.08;0.90;;;5.10;99.90;;;;;;5048016;27;20649;-79
2023/12/31 07:17:58;;;;;;;2.05;1.50;;;5.20;99.90;;;;;;5047134;28;20315;-79
2023/12/31 07:20:26;;;;;;;2.03;1.77;;;5.30;99.90;;;;;;5045017;27;20195;-79
2023/12/31 07:22:53;;;;;;;1.23;1.10;;;5.30;99.90;;;;;;5040334;27;20199;-79
2023/12/31 07:25:20;;;;;;;1.50;1.40;;;5.40;99.90;;;;;;5034079;28;20261;-80
2023/12/31 07:27:47;;;;;;;1.45;1.15;;;5.40;99.90;;;;;;5048057;28;20206;-80
2023/12/31 07:30:14;;;;;;;1.20;1.10;;;5.40;99.90;;;;;;5041069;28;20342;-79
2023/12/31 07:32:41;;;;;;;1.45;1.35;;;5.40;99.90;;;;;;5048063;27;20212;-79
2023/12/31 07:35:08;;;;;;;1.65;1.38;;;5.40;99.90;;;;;;5038818;27;20208;-80
2023/12/31 07:37:38;;;;;;;1.45;1.35;;;5.40;99.90;;;;;;5043975;27;20287;-80
2023/12/31 07:40:06;;;;;;;1.58;1.20;;;5.40;99.90;;;;;;5037835;28;20303;-79
2023/12/31 07:42:33;;;;;;;1.50;1.40;;;5.40;99.90;;;;;;5032920;27;20209;-79
2023/12/31 07:45:00;;;;;;;1.60;1.35;;;5.60;99.90;;;;;;5038111;27;20209;-79
2023/12/31 07:47:27;;;;;;;1.15;1.05;;;5.60;99.90;;;;;;5038286;28;20212;-79
2023/12/31 07:49:53;;;;;;;2.05;1.90;;;5.70;99.90;;;;;;5054038;27;20231;-79
2023/12/31 07:52:20;;;;;;;0.90;0.90;;;5.70;99.90;;;;;;5058374;28;20200;-79
2023/12/31 07:54:49;;;;;;;1.48;1.38;;;5.70;99.90;;;;;;5055232;27;20555;-79
2023/12/31 07:57:15;;;;;;;1.02;0.93;;;5.90;99.90;;;;;;5070751;27;20215;-87
2023/12/31 07:59:42;;;;;;;1.42;1.33;;;5.90;99.90;;;;;;5079317;27;20203;-76
2023/12/31 08:02:09;;;;;;;2.58;1.60;;;5.80;99.80;;;;;;5054357;27;20295;-73
2023/12/31 08:04:36;;;;;;;3.50;1.73;;;5.80;99.90;;;;;;5046345;28;20204;-74
2023/12/31 08:07:03;;;;;;;3.25;2.40;;;5.80;99.60;;;;;;5051206;28;20211;-75
2023/12/31 08:09:30;;;;;;;1.77;1.40;;;5.90;99.90;;;;;;5052050;28;20624;-74
2023/12/31 08:11:58;;;;;;;1.77;1.45;;;5.90;99.30;;;;;;5045766;28;20196;-73
2023/12/31 08:14:25;;;;;;;1.55;1.45;;;5.90;99.60;;;;;;5040717;28;20206;-75
2023/12/31 08:16:52;;;;;;;1.20;1.10;;;6.00;99.60;;;;;;5041955;28;20202;-75
2023/12/31 08:19:19;;;;;;;1.00;1.00;;;6.00;99.10;;;;;;5039625;28;21067;-75
2023/12/31 08:21:46;;;;;;;1.58;1.48;;;6.10;99.20;;;;;;5037893;28;20282;-75
2023/12/31 08:24:18;;;;;;;1.80;1.38;;;6.00;99.00;;;;;;5045336;28;20692;-75
2023/12/31 08:26:44;;;;;;;1.23;1.10;;;6.00;99.30;;;;;;5043960;27;20244;-79
2023/12/31 08:29:13;;;;;;;0.82;0.82;;;6.10;99.20;;;;;;5040936;28;20200;-76
2023/12/31 08:31:39;;;;;;;1.52;1.40;;;6.20;98.80;;;;;;5039747;28;20223;-77
2023/12/31 08:34:07;;;;;;;1.60;1.50;;;6.20;98.80;;;;;;5041822;28;20307;-78
2023/12/31 08:36:34;;;;;;;1.98;1.17;;;6.20;98.60;;;;;;5040834;28;20209;-77
2023/12/31 08:39:02;;;;;;;1.35;1.25;;;6.30;98.40;;;;;;5037208;28;20720;-77
2023/12/31 08:41:29;;;;;;;2.65;1.90;;;6.30;98.30;;;;;;5037844;28;20204;-76
2023/12/31 08:43:55;;;;;;;1.58;1.27;;;6.40;98.50;;;;;;5034631;28;20291;-77
2023/12/31 08:46:23;;;;;;;1.20;1.10;;;6.40;97.70;;;;;;5033746;28;20200;-77
2023/12/31 08:48:50;;;;;;;1.77;1.65;;;6.40;97.70;;;;;;5036815;28;20287;-79
2023/12/31 08:51:17;;;;;;;4.47;1.80;;;6.40;97.70;;;;;;5036855;28;20243;-77
2023/12/31 08:53:44;;;;;;;3.90;1.38;;;6.40;98.10;;;;;;5044585;28;20249;-78
2023/12/31 08:56:11;;;;;;;2.25;1.30;;;6.40;98.30;;;;;;5037801;28;20195;-78
2023/12/31 08:58:37;;;;;;;1.80;1.70;;;6.50;98.40;;;;;;5046946;28;20756;-78
2023/12/31 09:01:05;;;;;;;2.10;1.90;;;6.50;98.50;;;;;;5040984;28;20606;-78
2023/12/31 09:03:33;;;;;;;1.70;1.60;;;6.40;98.50;;;;;;5055389;28;20210;-78
2023/12/31 09:06:00;;;;;;;1.70;1.30;;;6.40;98.80;;;;;;5034796;28;20926;-76
2023/12/31 09:08:27;;;;;;;3.78;1.90;;;6.40;98.60;;;;;;5037755;28;20208;-77
2023/12/31 09:10:55;;;;;;;1.80;1.38;;;6.50;98.10;;;;;;5045504;28;20226;-76
2023/12/31 09:13:22;;;;;;;2.47;2.28;;;6.50;98.30;;;;;;5047707;27;20245;-74
2023/12/31 09:15:49;;;;;;;3.72;1.85;;;6.40;98.30;;;;;;5045884;28;20224;-74
2023/12/31 09:18:17;;;;;;;0.83;0.83;;;6.50;98.80;;;;;;5051391;27;20208;-73
2023/12/31 09:20:45;;;;;;;3.07;1.57;;;6.50;98.60;;;;;;5042918;27;20626;-73
2023/12/31 09:23:12;;;;;;;2.70;1.93;;;6.60;98.60;;;;;;5042905;28;20757;-73
2023/12/31 09:25:39;;;;;;;1.13;1.02;;;6.50;98.50;;;;;;5041861;27;20726;-74
2023/12/31 09:28:06;;;;;;;2.73;1.87;;;6.70;98.40;;;;;;5046768;27;20210;-73
2023/12/31 09:30:33;;;;;;;2.42;2.22;;;6.60;98.30;;;;;;5031667;27;20667;-73
2023/12/31 09:33:00;;;;;;;4.38;2.63;;;6.70;98.10;;;;;;5030976;27;20279;-73
2023/12/31 09:35:26;;;;;;;4.72;2.65;;;6.80;98.30;;;;;;5045611;28;20201;-74
2023/12/31 09:37:55;;;;;;;3.07;2.00;;;6.80;98.20;;;;;;5041657;27;20200;-74
2023/12/31 09:40:21;;;;;;;3.33;2.37;;;7.00;98.30;;;;;;5037220;27;21245;-73
2023/12/31 09:42:49;;;;;;;2.60;2.10;;;7.00;98.20;;;;;;5034682;27;20638;-73
2023/12/31 09:45:21;;;;;;;17.13;2.67;;;6.90;98.60;;;;;;5029713;27;21183;-73
2023/12/31 09:47:49;;;;;;;2.60;2.40;;;6.90;98.50;;;;;;5041542;27;20634;-74
2023/12/31 09:50:17;;;;;;;2.87;1.97;;;7.00;98.40;;;;;;5035551;27;20659;-73
2023/12/31 09:52:45;;;;;;;1.63;1.30;;;7.10;98.20;;;;;;5051371;27;20979;-74
2023/12/31 09:55:14;;;;;;;2.33;1.53;;;7.10;98.00;;;;;;5029900;28;20620;-73
2023/12/31 09:57:43;;;;;;;1.70;1.60;;;7.20;97.90;;;;;;5039987;28;21246;-74
2023/12/31 10:00:11;;;;;;;2.17;1.97;;;7.20;98.20;;;;;;5047498;28;21199;-73
2023/12/31 10:02:38;;;;;;;2.30;2.20;;;7.30;97.90;;;;;;5044213;27;20628;-74
2023/12/31 10:05:06;;;;;;;3.13;1.83;;;7.30;97.90;;;;;;5049854;27;20630;-74
2023/12/31 10:07:34;;;;;;;1.80;1.70;;;7.40;97.90;;;;;;5048002;27;21243;-74
2023/12/31 10:10:04;;;;;;;2.37;2.17;;;7.40;97.80;;;;;;5054732;27;21105;-74
2023/12/31 10:12:33;;;;;;;2.50;2.03;;;7.50;98.20;;;;;;5050344;27;20626;-74
2023/12/31 10:15:00;;;;;;;1.60;1.50;;;7.50;97.90;;;;;;5046230;27;21195;-74
2023/12/31 10:17:28;;;;;;;2.53;1.60;;;7.60;98.00;;;;;;5042462;28;20618;-74
2023/12/31 10:19:56;;;;;;;2.20;1.73;;;7.60;97.70;;;;;;5040259;27;20681;-74
2023/12/31 10:22:23;;;;;;;2.83;2.40;;;7.70;97.20;;;;;;5049537;27;20965;-74
2023/12/31 10:24:50;;;;;;;1.83;1.73;;;7.70;97.30;;;;;;5042610;27;20739;-73
2023/12/31 10:27:17;;;;;;;3.37;1.60;;;7.70;97.10;;;;;;5049724;27;20625;-74
2023/12/31 10:29:45;;;;;;;1.67;1.57;;;7.80;97.10;;;;;;5040247;27;20629;-73
2023/12/31 10:32:11;;;;;;;2.53;2.10;;;7.80;97.00;;;;;;5040238;28;20740;-74
2023/12/31 10:34:40;;;;;;;1.87;1.77;;;7.80;97.10;;;;;;5049796;28;20736;-74
2023/12/31 10:37:07;;;;;;;2.53;1.77;;;7.80;96.90;;;;;;5039779;27;21050;-74
2023/12/31 10:39:36;;;;;;;3.30;2.53;;;7.90;96.70;;;;;;5040513;27;20722;-74
2023/12/31 10:42:04;;;;;;;2.30;2.10;;;8.00;96.50;;;;;;5042530;27;21242;-74
2023/12/31 10:44:34;;;;;;;3.27;2.63;;;8.10;96.50;;;;;;5036232;28;20637;-73
2023/12/31 10:47:05;;;;;;;4.20;2.37;;;8.10;96.90;;;;;;5044514;27;20631;-74
2023/12/31 10:49:32;;;;;;;3.00;2.27;;;8.10;96.80;;;;;;5034296;27;20627;-74
2023/12/31 10:52:02;;;;;;;2.47;2.27;;;8.10;96.80;;;;;;5042064;28;20692;-73
2023/12/31 10:54:37;;;;;;;3.03;2.80;;;8.20;96.80;;;;;;5043887;28;21031;-74
2023/12/31 10:57:06;;;;;;;2.50;2.30;;;8.20;96.80;;;;;;5037200;28;21211;-74
2023/12/31 10:59:35;;;;;;;3.67;3.40;;;8.30;96.80;;;;;;5054071;27;21044;-74
2023/12/31 11:02:04;;;;;;;5.50;3.83;;;8.20;97.20;;;;;;5045090;28;20633;-74
2023/12/31 11:04:31;;;;;;;4.50;3.40;;;8.30;97.20;;;;;;5038873;27;21208;-74
2023/12/31 11:07:03;;;;;;;4.33;3.93;;;8.30;97.10;;;;;;5045832;27;20638;-74
2023/12/31 11:09:30;;;;;;;3.07;2.73;;;8.40;97.10;;;;;;5048958;27;20613;-74
2023/12/31 11:11:58;;;;;;;4.20;3.60;;;8.50;96.70;;;;;;5049327;27;20680;-74
2023/12/31 11:14:29;;;;;;;3.23;2.93;;;8.50;96.80;;;;;;5042760;28;20637;-74
2023/12/31 11:17:11;;;;;;;4.17;3.30;;;8.50;96.80;;;;;;5039098;27;20641;-73
2023/12/31 11:19:59;;;;;;;3.70;2.93;;;8.50;96.80;;;;;;5043279;27;20628;-76
2023/12/31 11:22:40;;;;;;;3.10;2.80;;;8.50;96.40;;;;;;5043953;27;21216;-76
2023/12/31 11:25:07;;;;;;;2.67;2.33;;;8.50;96.50;;;;;;5040487;28;21157;-77
2023/12/31 11:27:35;;;;;;;3.07;2.80;;;8.50;96.70;;;;;;5042638;28;20736;-76
2023/12/31 11:30:03;;;;;;;3.78;3.38;;;8.50;97.10;;;;;;5038337;28;20754;-78
2023/12/31 11:32:34;;;;;;;2.77;2.57;;;8.50;97.30;;;;;;5045162;28;20230;-77
2023/12/31 11:35:04;;;;;;;3.53;3.23;;;8.60;98.20;;;;;;5044335;28;20622;-78
2023/12/31 11:37:31;;;;;;;9.80;2.90;;;8.50;98.00;;;;;;5042857;28;20768;-77
2023/12/31 11:39:58;;;;;;;2.90;2.70;;;8.40;98.10;;;;;;5045113;27;20711;-78
2023/12/31 11:42:25;;;;;;;7.33;3.90;;;8.40;98.60;;;;;;5047726;27;20646;-78
2023/12/31 11:44:53;;;;;;;2.73;2.53;;;8.30;98.90;;;;;;5046464;27;20622;-78
2023/12/31 11:47:22;;;;;;;2.00;1.40;;;8.30;98.50;;;;;;5037736;27;20754;-78
2023/12/31 11:49:53;;;;;;;4.97;2.27;;;8.40;97.70;;;;;;5036324;27;20738;-77
2023/12/31 11:52:21;;;;;;;1.10;1.10;;;8.40;98.70;;;;;;5081967;27;20673;-78
2023/12/31 11:54:51;;;;;;;1.20;1.10;;;8.30;99.90;;;;;;5044444;27;20659;-75
2023/12/31 11:57:20;;;;;;;1.10;0.90;;;8.00;99.90;;;;;;5043633;28;20622;-76
2023/12/31 11:59:47;;;;;;;1.70;1.40;;;7.80;99.90;;;;;;5056148;27;20626;-75
2023/12/31 12:02:14;;;;;;;1.37;1.23;;;7.80;99.90;;;;;;5038994;28;21261;-75
2023/12/31 12:04:41;;;;;;;1.52;1.02;;;7.70;99.90;;;;;;5051039;27;20634;-75
2023/12/31 12:07:09;;;;;;;0.90;0.77;;;7.50;99.90;;;;;;5057052;27;20214;-76
2023/12/31 12:09:36;;;;;;;1.30;1.00;;;7.50;99.90;;;;;;5043673;27;20927;-75
2023/12/31 12:12:05;;;;;;;1.20;0.90;;;7.40;99.90;;;;;;5051227;27;20673;-76
2023/12/31 12:14:33;;;;;;;1.40;1.30;;;7.40;99.90;;;;;;5058965;27;20744;-75
2023/12/31 12:17:02;;;;;;;0.87;0.87;;;7.30;99.90;;;;;;5054891;27;20649;-76
2023/12/31 12:19:32;;;;;;;0.90;0.90;;;7.20;99.90;;;;;;5058345;27;20635;-76
2023/12/31 12:22:01;;;;;;;1.17;1.05;;;7.20;99.90;;;;;;5048006;28;20725;-76
2023/12/31 12:24:29;;;;;;;1.60;1.40;;;7.20;99.90;;;;;;5049655;27;20310;-76
2023/12/31 12:26:58;;;;;;;1.20;1.10;;;7.20;99.90;;;;;;5048102;27;20210;-76
2023/12/31 12:29:27;;;;;;;0.53;0.53;;;7.30;99.90;;;;;;5049173;27;20209;-77
2023/12/31 12:31:53;;;;;;;1.00;0.90;;;7.20;99.90;;;;;;5050850;27;20761;-76
2023/12/31 12:34:20;;;;;;;0.98;0.98;;;7.30;99.90;;;;;;5051635;27;20626;-76
2023/12/31 12:36:48;;;;;;;1.50;1.10;;;7.20;99.90;;;;;;5049565;27;20207;-76
2023/12/31 12:39:15;;;;;;;1.00;0.83;;;7.30;99.90;;;;;;5046040;27;20738;-77
2023/12/31 12:41:48;;;;;;;0.90;0.90;;;7.30;99.90;;;;;;5042756;27;20652;-77
2023/12/31 12:44:15;;;;;;;1.03;1.00;;;7.20;99.90;;;;;;5048230;27;20633;-78
2023/12/31 12:46:43;;;;;;;1.17;0.73;;;7.30;99.90;;;;;;5038669;27;21301;-78
2023/12/31 12:49:11;;;;;;;1.10;0.53;;;7.10;99.90;;;;;;5033077;27;20669;-78
2023/12/31 12:51:39;;;;;;;0.83;0.70;;;7.20;99.90;;;;;;5036007;27;21194;-77
2023/12/31 12:54:07;;;;;;;0.63;0.63;;;7.10;99.90;;;;;;5042677;28;20631;-78
2023/12/31 12:56:34;;;;;;;0.75;0.65;;;7.10;99.90;;;;;;5034880;27;20597;-78
2023/12/31 12:59:03;;;;;;;1.57;1.17;;;7.20;99.90;;;;;;5053927;28;20195;-82